<?xml version="1.0" encoding="UTF-8" standalone="no" ?>
<gpx xmlns="http://www.topografix.com/GPX/1/1" xmlns:xsi="http://www.w3.org/2001/XMLSchema-instance" xsi:schemaLocation="http://www.topografix.com/GPX/1/1 http://www.topografix.com/GPX/1/1/gpx.xsd" version="1.1" creator="VisuGPX - https://www.visugpx.com">
  <metadata>
    <name>TAHITI - PEDESTRE - Pirae - le belvédère</name>
    <desc><![CDATA[Départ en mi-côte jusqu'au-dessus du belvédère et retour sur Pirae.]]></desc>
  </metadata>
  <wpt lat="-17.56351" lon="-149.53245">
    <ele>399.310303</ele>
    <name><![CDATA[belvédère]]></name>
    <desc><![CDATA[07-MAI-12 20:15:58]]></desc>
  </wpt>
  <wpt lat="-17.53716" lon="-149.54865">
    <ele>57.564209</ele>
    <name><![CDATA[Enjoy]]></name>
    <desc><![CDATA[18-MAI-12 5:57:27]]></desc>
  </wpt>
  <trk>
    <name><![CDATA[ACTIVE LOG 001]]></name>
    <trkseg>
      <trkpt lat="-17.56358" lon="-149.53231">
        <ele>399.084351</ele>
        <time>2012-05-07T18:15:36Z</time>
      </trkpt>
      <trkpt lat="-17.56357" lon="-149.53232">
        <ele>399.084351</ele>
        <time>2012-05-07T18:15:38Z</time>
      </trkpt>
      <trkpt lat="-17.56348" lon="-149.53251">
        <ele>401.487793</ele>
        <time>2012-05-07T18:16:06Z</time>
      </trkpt>
      <trkpt lat="-17.56347" lon="-149.53251">
        <ele>399.565063</ele>
        <time>2012-05-07T18:16:08Z</time>
      </trkpt>
      <trkpt lat="-17.56347" lon="-149.53235">
        <ele>400.526489</ele>
        <time>2012-05-07T18:17:16Z</time>
      </trkpt>
      <trkpt lat="-17.56345" lon="-149.53234">
        <ele>401.487793</ele>
        <time>2012-05-07T18:17:20Z</time>
      </trkpt>
      <trkpt lat="-17.56333" lon="-149.53239">
        <ele>401.968506</ele>
        <time>2012-05-07T18:17:31Z</time>
      </trkpt>
      <trkpt lat="-17.56321" lon="-149.53234">
        <ele>403.4104</ele>
        <time>2012-05-07T18:17:45Z</time>
      </trkpt>
      <trkpt lat="-17.56307" lon="-149.53231">
        <ele>406.774902</ele>
        <time>2012-05-07T18:18:00Z</time>
      </trkpt>
      <trkpt lat="-17.56298" lon="-149.53235">
        <ele>408.217041</ele>
        <time>2012-05-07T18:18:15Z</time>
      </trkpt>
      <trkpt lat="-17.56292" lon="-149.53241">
        <ele>409.178345</ele>
        <time>2012-05-07T18:18:21Z</time>
      </trkpt>
      <trkpt lat="-17.56278" lon="-149.53252">
        <ele>411.100952</ele>
        <time>2012-05-07T18:18:35Z</time>
      </trkpt>
      <trkpt lat="-17.56262" lon="-149.53259">
        <ele>413.504272</ele>
        <time>2012-05-07T18:18:51Z</time>
      </trkpt>
      <trkpt lat="-17.5625" lon="-149.53262">
        <ele>414.465454</ele>
        <time>2012-05-07T18:19:05Z</time>
      </trkpt>
      <trkpt lat="-17.56237" lon="-149.53264">
        <ele>415.42688</ele>
        <time>2012-05-07T18:19:19Z</time>
      </trkpt>
      <trkpt lat="-17.56221" lon="-149.5326">
        <ele>417.349609</ele>
        <time>2012-05-07T18:19:33Z</time>
      </trkpt>
      <trkpt lat="-17.5621" lon="-149.53257">
        <ele>418.791504</ele>
        <time>2012-05-07T18:19:42Z</time>
      </trkpt>
      <trkpt lat="-17.56198" lon="-149.53259">
        <ele>420.233398</ele>
        <time>2012-05-07T18:19:54Z</time>
      </trkpt>
      <trkpt lat="-17.56183" lon="-149.5326">
        <ele>423.598022</ele>
        <time>2012-05-07T18:20:07Z</time>
      </trkpt>
      <trkpt lat="-17.56164" lon="-149.53265">
        <ele>425.040161</ele>
        <time>2012-05-07T18:20:24Z</time>
      </trkpt>
      <trkpt lat="-17.56149" lon="-149.53271">
        <ele>427.92395</ele>
        <time>2012-05-07T18:20:39Z</time>
      </trkpt>
      <trkpt lat="-17.5614" lon="-149.5328">
        <ele>429.365967</ele>
        <time>2012-05-07T18:20:53Z</time>
      </trkpt>
      <trkpt lat="-17.56132" lon="-149.5328">
        <ele>430.807983</ele>
        <time>2012-05-07T18:21:07Z</time>
      </trkpt>
      <trkpt lat="-17.56117" lon="-149.53277">
        <ele>432.25</ele>
        <time>2012-05-07T18:21:30Z</time>
      </trkpt>
      <trkpt lat="-17.56106" lon="-149.53272">
        <ele>433.691895</ele>
        <time>2012-05-07T18:21:40Z</time>
      </trkpt>
      <trkpt lat="-17.56086" lon="-149.53266">
        <ele>436.575928</ele>
        <time>2012-05-07T18:21:58Z</time>
      </trkpt>
      <trkpt lat="-17.56071" lon="-149.5326">
        <ele>438.979126</ele>
        <time>2012-05-07T18:22:13Z</time>
      </trkpt>
      <trkpt lat="-17.56064" lon="-149.53256">
        <ele>440.421265</ele>
        <time>2012-05-07T18:22:21Z</time>
      </trkpt>
      <trkpt lat="-17.56056" lon="-149.53266">
        <ele>441.382446</ele>
        <time>2012-05-07T18:22:37Z</time>
      </trkpt>
      <trkpt lat="-17.56055" lon="-149.53267">
        <ele>440.901855</ele>
        <time>2012-05-07T18:22:40Z</time>
      </trkpt>
      <trkpt lat="-17.56062" lon="-149.53268">
        <ele>442.343872</ele>
        <time>2012-05-07T18:22:52Z</time>
      </trkpt>
      <trkpt lat="-17.56067" lon="-149.53267">
        <ele>442.824463</ele>
        <time>2012-05-07T18:23:06Z</time>
      </trkpt>
      <trkpt lat="-17.56076" lon="-149.53265">
        <ele>443.305054</ele>
        <time>2012-05-07T18:23:21Z</time>
      </trkpt>
      <trkpt lat="-17.56091" lon="-149.53265">
        <ele>444.266479</ele>
        <time>2012-05-07T18:23:40Z</time>
      </trkpt>
      <trkpt lat="-17.56106" lon="-149.53264">
        <ele>445.708374</ele>
        <time>2012-05-07T18:23:54Z</time>
      </trkpt>
      <trkpt lat="-17.56118" lon="-149.5326">
        <ele>446.669678</ele>
        <time>2012-05-07T18:24:07Z</time>
      </trkpt>
      <trkpt lat="-17.5614" lon="-149.53249">
        <ele>448.111816</ele>
        <time>2012-05-07T18:24:23Z</time>
      </trkpt>
      <trkpt lat="-17.56154" lon="-149.53237">
        <ele>449.072998</ele>
        <time>2012-05-07T18:24:36Z</time>
      </trkpt>
      <trkpt lat="-17.56162" lon="-149.53231">
        <ele>450.515015</ele>
        <time>2012-05-07T18:24:49Z</time>
      </trkpt>
      <trkpt lat="-17.56178" lon="-149.53218">
        <ele>451.476318</ele>
        <time>2012-05-07T18:25:05Z</time>
      </trkpt>
      <trkpt lat="-17.56191" lon="-149.53208">
        <ele>454.360229</ele>
        <time>2012-05-07T18:25:19Z</time>
      </trkpt>
      <trkpt lat="-17.56209" lon="-149.53191">
        <ele>457.244263</ele>
        <time>2012-05-07T18:25:39Z</time>
      </trkpt>
      <trkpt lat="-17.56219" lon="-149.53183">
        <ele>458.205566</ele>
        <time>2012-05-07T18:25:51Z</time>
      </trkpt>
      <trkpt lat="-17.56229" lon="-149.53171">
        <ele>460.608765</ele>
        <time>2012-05-07T18:26:05Z</time>
      </trkpt>
      <trkpt lat="-17.5624" lon="-149.53159">
        <ele>462.531372</ele>
        <time>2012-05-07T18:26:18Z</time>
      </trkpt>
      <trkpt lat="-17.56248" lon="-149.53144">
        <ele>463.973389</ele>
        <time>2012-05-07T18:26:33Z</time>
      </trkpt>
      <trkpt lat="-17.5625" lon="-149.53136">
        <ele>465.896118</ele>
        <time>2012-05-07T18:26:42Z</time>
      </trkpt>
      <trkpt lat="-17.56249" lon="-149.53119">
        <ele>467.338135</ele>
        <time>2012-05-07T18:26:58Z</time>
      </trkpt>
      <trkpt lat="-17.56244" lon="-149.53113">
        <ele>467.818726</ele>
        <time>2012-05-07T18:27:04Z</time>
      </trkpt>
      <trkpt lat="-17.5623" lon="-149.53104">
        <ele>469.741333</ele>
        <time>2012-05-07T18:27:20Z</time>
      </trkpt>
      <trkpt lat="-17.5622" lon="-149.53105">
        <ele>471.18335</ele>
        <time>2012-05-07T18:27:32Z</time>
      </trkpt>
      <trkpt lat="-17.56202" lon="-149.53098">
        <ele>473.106079</ele>
        <time>2012-05-07T18:27:45Z</time>
      </trkpt>
      <trkpt lat="-17.56187" lon="-149.53093">
        <ele>476.951294</ele>
        <time>2012-05-07T18:28:00Z</time>
      </trkpt>
      <trkpt lat="-17.5617" lon="-149.53083">
        <ele>477.431885</ele>
        <time>2012-05-07T18:28:12Z</time>
      </trkpt>
      <trkpt lat="-17.56162" lon="-149.53079">
        <ele>478.873901</ele>
        <time>2012-05-07T18:28:23Z</time>
      </trkpt>
      <trkpt lat="-17.56143" lon="-149.53065">
        <ele>480.796631</ele>
        <time>2012-05-07T18:28:39Z</time>
      </trkpt>
      <trkpt lat="-17.56134" lon="-149.53059">
        <ele>481.277222</ele>
        <time>2012-05-07T18:28:56Z</time>
      </trkpt>
      <trkpt lat="-17.56126" lon="-149.53052">
        <ele>483.199829</ele>
        <time>2012-05-07T18:29:08Z</time>
      </trkpt>
      <trkpt lat="-17.56121" lon="-149.53048">
        <ele>483.199829</ele>
        <time>2012-05-07T18:29:30Z</time>
      </trkpt>
      <trkpt lat="-17.56126" lon="-149.5304">
        <ele>485.122437</ele>
        <time>2012-05-07T18:30:08Z</time>
      </trkpt>
      <trkpt lat="-17.56128" lon="-149.53035">
        <ele>487.045044</ele>
        <time>2012-05-07T18:30:25Z</time>
      </trkpt>
      <trkpt lat="-17.56134" lon="-149.53022">
        <ele>488.967773</ele>
        <time>2012-05-07T18:30:45Z</time>
      </trkpt>
      <trkpt lat="-17.56146" lon="-149.53008">
        <ele>492.332397</ele>
        <time>2012-05-07T18:31:06Z</time>
      </trkpt>
      <trkpt lat="-17.56159" lon="-149.52987">
        <ele>493.774292</ele>
        <time>2012-05-07T18:31:23Z</time>
      </trkpt>
      <trkpt lat="-17.56169" lon="-149.52983">
        <ele>495.216187</ele>
        <time>2012-05-07T18:31:35Z</time>
      </trkpt>
      <trkpt lat="-17.56171" lon="-149.52978">
        <ele>497.138916</ele>
        <time>2012-05-07T18:31:44Z</time>
      </trkpt>
      <trkpt lat="-17.56175" lon="-149.52966">
        <ele>499.542236</ele>
        <time>2012-05-07T18:31:57Z</time>
      </trkpt>
      <trkpt lat="-17.56181" lon="-149.52958">
        <ele>500.50354</ele>
        <time>2012-05-07T18:32:15Z</time>
      </trkpt>
      <trkpt lat="-17.56191" lon="-149.5296">
        <ele>501.464844</ele>
        <time>2012-05-07T18:32:29Z</time>
      </trkpt>
      <trkpt lat="-17.56188" lon="-149.52965">
        <ele>502.426147</ele>
        <time>2012-05-07T18:32:43Z</time>
      </trkpt>
      <trkpt lat="-17.56181" lon="-149.52976">
        <ele>504.348877</ele>
        <time>2012-05-07T18:32:59Z</time>
      </trkpt>
      <trkpt lat="-17.5618" lon="-149.52983">
        <ele>505.310181</ele>
        <time>2012-05-07T18:33:04Z</time>
      </trkpt>
      <trkpt lat="-17.56174" lon="-149.53002">
        <ele>508.194092</ele>
        <time>2012-05-07T18:33:19Z</time>
      </trkpt>
      <trkpt lat="-17.56172" lon="-149.53008">
        <ele>508.674683</ele>
        <time>2012-05-07T18:33:24Z</time>
      </trkpt>
      <trkpt lat="-17.56165" lon="-149.53029">
        <ele>510.116699</ele>
        <time>2012-05-07T18:33:40Z</time>
      </trkpt>
      <trkpt lat="-17.56164" lon="-149.53037">
        <ele>511.078003</ele>
        <time>2012-05-07T18:34:01Z</time>
      </trkpt>
      <trkpt lat="-17.56166" lon="-149.53036">
        <ele>511.558716</ele>
        <time>2012-05-07T18:34:05Z</time>
      </trkpt>
      <trkpt lat="-17.56172" lon="-149.53027">
        <ele>513.481445</ele>
        <time>2012-05-07T18:34:21Z</time>
      </trkpt>
      <trkpt lat="-17.56176" lon="-149.53023">
        <ele>515.884644</ele>
        <time>2012-05-07T18:34:30Z</time>
      </trkpt>
      <trkpt lat="-17.56179" lon="-149.53017">
        <ele>516.845947</ele>
        <time>2012-05-07T18:34:34Z</time>
      </trkpt>
      <trkpt lat="-17.56187" lon="-149.53007">
        <ele>518.287842</ele>
        <time>2012-05-07T18:34:48Z</time>
      </trkpt>
      <trkpt lat="-17.56197" lon="-149.52998">
        <ele>521.171997</ele>
        <time>2012-05-07T18:35:01Z</time>
      </trkpt>
      <trkpt lat="-17.5621" lon="-149.52991">
        <ele>521.171997</ele>
        <time>2012-05-07T18:35:13Z</time>
      </trkpt>
      <trkpt lat="-17.56223" lon="-149.52987">
        <ele>524.536499</ele>
        <time>2012-05-07T18:35:24Z</time>
      </trkpt>
      <trkpt lat="-17.56235" lon="-149.52976">
        <ele>526.459106</ele>
        <time>2012-05-07T18:35:42Z</time>
      </trkpt>
      <trkpt lat="-17.56247" lon="-149.52962">
        <ele>529.34314</ele>
        <time>2012-05-07T18:36:03Z</time>
      </trkpt>
      <trkpt lat="-17.5626" lon="-149.52948">
        <ele>529.82373</ele>
        <time>2012-05-07T18:36:11Z</time>
      </trkpt>
      <trkpt lat="-17.56263" lon="-149.52942">
        <ele>531.265747</ele>
        <time>2012-05-07T18:36:16Z</time>
      </trkpt>
      <trkpt lat="-17.56267" lon="-149.52947">
        <ele>533.188354</ele>
        <time>2012-05-07T18:36:29Z</time>
      </trkpt>
      <trkpt lat="-17.56268" lon="-149.52951">
        <ele>534.630371</ele>
        <time>2012-05-07T18:36:33Z</time>
      </trkpt>
      <trkpt lat="-17.56269" lon="-149.52961">
        <ele>537.033691</ele>
        <time>2012-05-07T18:36:49Z</time>
      </trkpt>
      <trkpt lat="-17.56274" lon="-149.52973">
        <ele>539.43689</ele>
        <time>2012-05-07T18:37:04Z</time>
      </trkpt>
      <trkpt lat="-17.56274" lon="-149.52977">
        <ele>541.359497</ele>
        <time>2012-05-07T18:37:15Z</time>
      </trkpt>
      <trkpt lat="-17.5627" lon="-149.5298">
        <ele>543.282104</ele>
        <time>2012-05-07T18:37:24Z</time>
      </trkpt>
      <trkpt lat="-17.56261" lon="-149.52981">
        <ele>545.204834</ele>
        <time>2012-05-07T18:37:37Z</time>
      </trkpt>
      <trkpt lat="-17.56253" lon="-149.52995">
        <ele>547.127441</ele>
        <time>2012-05-07T18:37:50Z</time>
      </trkpt>
      <trkpt lat="-17.56259" lon="-149.53008">
        <ele>549.530762</ele>
        <time>2012-05-07T18:38:04Z</time>
      </trkpt>
      <trkpt lat="-17.56267" lon="-149.5301">
        <ele>551.453369</ele>
        <time>2012-05-07T18:38:20Z</time>
      </trkpt>
      <trkpt lat="-17.56277" lon="-149.53011">
        <ele>553.856689</ele>
        <time>2012-05-07T18:38:34Z</time>
      </trkpt>
      <trkpt lat="-17.56294" lon="-149.53004">
        <ele>556.740723</ele>
        <time>2012-05-07T18:38:48Z</time>
      </trkpt>
      <trkpt lat="-17.56307" lon="-149.52997">
        <ele>558.182861</ele>
        <time>2012-05-07T18:39:02Z</time>
      </trkpt>
      <trkpt lat="-17.56318" lon="-149.52983">
        <ele>559.624756</ele>
        <time>2012-05-07T18:39:31Z</time>
      </trkpt>
      <trkpt lat="-17.56316" lon="-149.52975">
        <ele>561.06665</ele>
        <time>2012-05-07T18:39:37Z</time>
      </trkpt>
      <trkpt lat="-17.56312" lon="-149.52963">
        <ele>563.469971</ele>
        <time>2012-05-07T18:39:44Z</time>
      </trkpt>
      <trkpt lat="-17.56311" lon="-149.52957">
        <ele>564.911865</ele>
        <time>2012-05-07T18:39:52Z</time>
      </trkpt>
      <trkpt lat="-17.56317" lon="-149.52952">
        <ele>567.795654</ele>
        <time>2012-05-07T18:40:04Z</time>
      </trkpt>
      <trkpt lat="-17.56329" lon="-149.5294">
        <ele>570.198975</ele>
        <time>2012-05-07T18:40:20Z</time>
      </trkpt>
      <trkpt lat="-17.56351" lon="-149.52935">
        <ele>571.640869</ele>
        <time>2012-05-07T18:40:37Z</time>
      </trkpt>
      <trkpt lat="-17.56361" lon="-149.52928">
        <ele>572.602539</ele>
        <time>2012-05-07T18:40:57Z</time>
      </trkpt>
      <trkpt lat="-17.56368" lon="-149.52926">
        <ele>575.486328</ele>
        <time>2012-05-07T18:41:12Z</time>
      </trkpt>
      <trkpt lat="-17.56362" lon="-149.52937">
        <ele>577.889648</ele>
        <time>2012-05-07T18:41:29Z</time>
      </trkpt>
      <trkpt lat="-17.5636" lon="-149.5294">
        <ele>578.370361</ele>
        <time>2012-05-07T18:41:33Z</time>
      </trkpt>
      <trkpt lat="-17.56364" lon="-149.52954">
        <ele>579.331543</ele>
        <time>2012-05-07T18:41:47Z</time>
      </trkpt>
      <trkpt lat="-17.56375" lon="-149.52973">
        <ele>578.851074</ele>
        <time>2012-05-07T18:42:05Z</time>
      </trkpt>
      <trkpt lat="-17.56375" lon="-149.52979">
        <ele>579.331543</ele>
        <time>2012-05-07T18:42:12Z</time>
      </trkpt>
      <trkpt lat="-17.56365" lon="-149.52993">
        <ele>580.773682</ele>
        <time>2012-05-07T18:42:31Z</time>
      </trkpt>
      <trkpt lat="-17.5636" lon="-149.52999">
        <ele>580.773682</ele>
        <time>2012-05-07T18:42:50Z</time>
      </trkpt>
      <trkpt lat="-17.56361" lon="-149.53003">
        <ele>580.773682</ele>
        <time>2012-05-07T18:43:07Z</time>
      </trkpt>
      <trkpt lat="-17.56362" lon="-149.53008">
        <ele>581.734863</ele>
        <time>2012-05-07T18:43:24Z</time>
      </trkpt>
      <trkpt lat="-17.56365" lon="-149.53009">
        <ele>581.734863</ele>
        <time>2012-05-07T18:43:36Z</time>
      </trkpt>
      <trkpt lat="-17.56365" lon="-149.53009">
        <ele>581.734863</ele>
        <time>2012-05-07T18:43:40Z</time>
      </trkpt>
      <trkpt lat="-17.56381" lon="-149.52996">
        <ele>582.696289</ele>
        <time>2012-05-07T18:43:58Z</time>
      </trkpt>
      <trkpt lat="-17.56397" lon="-149.52975">
        <ele>585.099609</ele>
        <time>2012-05-07T18:44:16Z</time>
      </trkpt>
      <trkpt lat="-17.56394" lon="-149.52959">
        <ele>587.983398</ele>
        <time>2012-05-07T18:44:27Z</time>
      </trkpt>
      <trkpt lat="-17.5639" lon="-149.52944">
        <ele>591.348145</ele>
        <time>2012-05-07T18:44:42Z</time>
      </trkpt>
      <trkpt lat="-17.56391" lon="-149.52942">
        <ele>591.828857</ele>
        <time>2012-05-07T18:44:44Z</time>
      </trkpt>
      <trkpt lat="-17.56394" lon="-149.52935">
        <ele>593.270752</ele>
        <time>2012-05-07T18:44:49Z</time>
      </trkpt>
      <trkpt lat="-17.56395" lon="-149.52933">
        <ele>593.270752</ele>
        <time>2012-05-07T18:44:51Z</time>
      </trkpt>
      <trkpt lat="-17.56399" lon="-149.5293">
        <ele>594.712646</ele>
        <time>2012-05-07T18:44:55Z</time>
      </trkpt>
      <trkpt lat="-17.56416" lon="-149.52925">
        <ele>597.59668</ele>
        <time>2012-05-07T18:45:14Z</time>
      </trkpt>
      <trkpt lat="-17.56429" lon="-149.5292">
        <ele>601.441895</ele>
        <time>2012-05-07T18:45:30Z</time>
      </trkpt>
      <trkpt lat="-17.56446" lon="-149.52906">
        <ele>602.883789</ele>
        <time>2012-05-07T18:45:51Z</time>
      </trkpt>
      <trkpt lat="-17.56456" lon="-149.52902">
        <ele>603.845215</ele>
        <time>2012-05-07T18:46:15Z</time>
      </trkpt>
      <trkpt lat="-17.5646" lon="-149.52905">
        <ele>606.729248</ele>
        <time>2012-05-07T18:46:24Z</time>
      </trkpt>
      <trkpt lat="-17.56458" lon="-149.52909">
        <ele>606.729248</ele>
        <time>2012-05-07T18:46:28Z</time>
      </trkpt>
      <trkpt lat="-17.56462" lon="-149.52913">
        <ele>608.651855</ele>
        <time>2012-05-07T18:46:34Z</time>
      </trkpt>
      <trkpt lat="-17.5647" lon="-149.52911">
        <ele>612.016602</ele>
        <time>2012-05-07T18:46:46Z</time>
      </trkpt>
      <trkpt lat="-17.56471" lon="-149.52911">
        <ele>612.49707</ele>
        <time>2012-05-07T18:46:48Z</time>
      </trkpt>
      <trkpt lat="-17.56475" lon="-149.52908">
        <ele>613.458496</ele>
        <time>2012-05-07T18:46:54Z</time>
      </trkpt>
      <trkpt lat="-17.56484" lon="-149.52903">
        <ele>615.381104</ele>
        <time>2012-05-07T18:47:09Z</time>
      </trkpt>
      <trkpt lat="-17.56496" lon="-149.529">
        <ele>616.822998</ele>
        <time>2012-05-07T18:47:24Z</time>
      </trkpt>
      <trkpt lat="-17.56509" lon="-149.52898">
        <ele>619.707031</ele>
        <time>2012-05-07T18:47:38Z</time>
      </trkpt>
      <trkpt lat="-17.5652" lon="-149.5289">
        <ele>621.629639</ele>
        <time>2012-05-07T18:47:52Z</time>
      </trkpt>
      <trkpt lat="-17.56531" lon="-149.52877">
        <ele>624.994385</ele>
        <time>2012-05-07T18:48:06Z</time>
      </trkpt>
      <trkpt lat="-17.56536" lon="-149.52869">
        <ele>625.474854</ele>
        <time>2012-05-07T18:48:24Z</time>
      </trkpt>
      <trkpt lat="-17.56541" lon="-149.5287">
        <ele>627.878174</ele>
        <time>2012-05-07T18:48:34Z</time>
      </trkpt>
      <trkpt lat="-17.56549" lon="-149.5288">
        <ele>630.762207</ele>
        <time>2012-05-07T18:48:50Z</time>
      </trkpt>
      <trkpt lat="-17.56552" lon="-149.52877">
        <ele>631.723389</ele>
        <time>2012-05-07T18:49:03Z</time>
      </trkpt>
      <trkpt lat="-17.56554" lon="-149.52874">
        <ele>630.762207</ele>
        <time>2012-05-07T18:49:11Z</time>
      </trkpt>
      <trkpt lat="-17.56556" lon="-149.52871">
        <ele>632.204102</ele>
        <time>2012-05-07T18:49:14Z</time>
      </trkpt>
      <trkpt lat="-17.56563" lon="-149.52861">
        <ele>635.088135</ele>
        <time>2012-05-07T18:49:24Z</time>
      </trkpt>
      <trkpt lat="-17.56571" lon="-149.52856">
        <ele>637.972168</ele>
        <time>2012-05-07T18:49:37Z</time>
      </trkpt>
      <trkpt lat="-17.56581" lon="-149.52855">
        <ele>638.933594</ele>
        <time>2012-05-07T18:49:46Z</time>
      </trkpt>
      <trkpt lat="-17.56589" lon="-149.52854">
        <ele>639.414062</ele>
        <time>2012-05-07T18:49:51Z</time>
      </trkpt>
      <trkpt lat="-17.56609" lon="-149.52842">
        <ele>637.491455</ele>
        <time>2012-05-07T18:50:11Z</time>
      </trkpt>
      <trkpt lat="-17.56624" lon="-149.52827">
        <ele>636.049561</ele>
        <time>2012-05-07T18:50:27Z</time>
      </trkpt>
      <trkpt lat="-17.56637" lon="-149.52816">
        <ele>636.049561</ele>
        <time>2012-05-07T18:50:44Z</time>
      </trkpt>
      <trkpt lat="-17.5665" lon="-149.52801">
        <ele>636.530273</ele>
        <time>2012-05-07T18:51:03Z</time>
      </trkpt>
      <trkpt lat="-17.56655" lon="-149.52797">
        <ele>637.972168</ele>
        <time>2012-05-07T18:51:17Z</time>
      </trkpt>
      <trkpt lat="-17.5666" lon="-149.52793">
        <ele>638.452881</ele>
        <time>2012-05-07T18:51:33Z</time>
      </trkpt>
      <trkpt lat="-17.56681" lon="-149.52776">
        <ele>638.933594</ele>
        <time>2012-05-07T18:51:51Z</time>
      </trkpt>
      <trkpt lat="-17.56699" lon="-149.52761">
        <ele>638.933594</ele>
        <time>2012-05-07T18:52:12Z</time>
      </trkpt>
      <trkpt lat="-17.56709" lon="-149.52755">
        <ele>639.414062</ele>
        <time>2012-05-07T18:52:31Z</time>
      </trkpt>
      <trkpt lat="-17.56728" lon="-149.52748">
        <ele>639.894775</ele>
        <time>2012-05-07T18:52:52Z</time>
      </trkpt>
      <trkpt lat="-17.56732" lon="-149.52745">
        <ele>639.894775</ele>
        <time>2012-05-07T18:53:11Z</time>
      </trkpt>
      <trkpt lat="-17.56738" lon="-149.52743">
        <ele>640.855957</ele>
        <time>2012-05-07T18:53:42Z</time>
      </trkpt>
      <trkpt lat="-17.56738" lon="-149.52743">
        <ele>640.375488</ele>
        <time>2012-05-07T18:54:11Z</time>
      </trkpt>
      <trkpt lat="-17.56739" lon="-149.52743">
        <ele>640.855957</ele>
        <time>2012-05-07T18:55:32Z</time>
      </trkpt>
      <trkpt lat="-17.56738" lon="-149.52743">
        <ele>640.855957</ele>
        <time>2012-05-07T18:56:37Z</time>
      </trkpt>
      <trkpt lat="-17.56739" lon="-149.5274">
        <ele>640.375488</ele>
        <time>2012-05-07T18:58:14Z</time>
      </trkpt>
      <trkpt lat="-17.5674" lon="-149.52741">
        <ele>640.375488</ele>
        <time>2012-05-07T18:58:41Z</time>
      </trkpt>
      <trkpt lat="-17.56748" lon="-149.52739">
        <ele>641.33667</ele>
        <time>2012-05-07T18:59:03Z</time>
      </trkpt>
      <trkpt lat="-17.56751" lon="-149.52737">
        <ele>641.817383</ele>
        <time>2012-05-07T18:59:25Z</time>
      </trkpt>
      <trkpt lat="-17.56757" lon="-149.52735">
        <ele>643.259277</ele>
        <time>2012-05-07T18:59:43Z</time>
      </trkpt>
      <trkpt lat="-17.56759" lon="-149.52734">
        <ele>644.701172</ele>
        <time>2012-05-07T18:59:47Z</time>
      </trkpt>
      <trkpt lat="-17.56764" lon="-149.5273">
        <ele>645.181885</ele>
        <time>2012-05-07T19:00:00Z</time>
      </trkpt>
      <trkpt lat="-17.56769" lon="-149.52728">
        <ele>645.181885</ele>
        <time>2012-05-07T19:00:17Z</time>
      </trkpt>
      <trkpt lat="-17.56774" lon="-149.52726">
        <ele>648.546387</ele>
        <time>2012-05-07T19:00:26Z</time>
      </trkpt>
      <trkpt lat="-17.56783" lon="-149.52726">
        <ele>649.988525</ele>
        <time>2012-05-07T19:00:41Z</time>
      </trkpt>
      <trkpt lat="-17.56798" lon="-149.52726">
        <ele>652.391846</ele>
        <time>2012-05-07T19:00:58Z</time>
      </trkpt>
      <trkpt lat="-17.56809" lon="-149.52724">
        <ele>654.314697</ele>
        <time>2012-05-07T19:01:13Z</time>
      </trkpt>
      <trkpt lat="-17.56822" lon="-149.52724">
        <ele>655.756592</ele>
        <time>2012-05-07T19:01:30Z</time>
      </trkpt>
      <trkpt lat="-17.5683" lon="-149.52717">
        <ele>659.121094</ele>
        <time>2012-05-07T19:01:45Z</time>
      </trkpt>
      <trkpt lat="-17.56843" lon="-149.52712">
        <ele>659.121094</ele>
        <time>2012-05-07T19:02:01Z</time>
      </trkpt>
      <trkpt lat="-17.56853" lon="-149.52714">
        <ele>662.485596</ele>
        <time>2012-05-07T19:02:11Z</time>
      </trkpt>
      <trkpt lat="-17.56868" lon="-149.52717">
        <ele>664.888916</ele>
        <time>2012-05-07T19:02:30Z</time>
      </trkpt>
      <trkpt lat="-17.56875" lon="-149.52714">
        <ele>664.888916</ele>
        <time>2012-05-07T19:03:07Z</time>
      </trkpt>
      <trkpt lat="-17.56879" lon="-149.52714">
        <ele>664.888916</ele>
        <time>2012-05-07T19:03:30Z</time>
      </trkpt>
      <trkpt lat="-17.56882" lon="-149.5271">
        <ele>664.888916</ele>
        <time>2012-05-07T19:04:20Z</time>
      </trkpt>
      <trkpt lat="-17.56879" lon="-149.5271">
        <ele>663.92749</ele>
        <time>2012-05-07T19:04:40Z</time>
      </trkpt>
      <trkpt lat="-17.56877" lon="-149.52711">
        <ele>663.447021</ele>
        <time>2012-05-07T19:05:00Z</time>
      </trkpt>
      <trkpt lat="-17.56879" lon="-149.52711">
        <ele>663.447021</ele>
        <time>2012-05-07T19:05:27Z</time>
      </trkpt>
      <trkpt lat="-17.56876" lon="-149.5271">
        <ele>662.966309</ele>
        <time>2012-05-07T19:05:43Z</time>
      </trkpt>
      <trkpt lat="-17.56869" lon="-149.52707">
        <ele>662.485596</ele>
        <time>2012-05-07T19:06:02Z</time>
      </trkpt>
      <trkpt lat="-17.56856" lon="-149.52702">
        <ele>661.524414</ele>
        <time>2012-05-07T19:06:18Z</time>
      </trkpt>
      <trkpt lat="-17.56845" lon="-149.52702">
        <ele>658.640381</ele>
        <time>2012-05-07T19:06:31Z</time>
      </trkpt>
      <trkpt lat="-17.56838" lon="-149.5271">
        <ele>655.275879</ele>
        <time>2012-05-07T19:06:43Z</time>
      </trkpt>
      <trkpt lat="-17.56826" lon="-149.52714">
        <ele>653.353271</ele>
        <time>2012-05-07T19:07:00Z</time>
      </trkpt>
      <trkpt lat="-17.56813" lon="-149.52718">
        <ele>651.43042</ele>
        <time>2012-05-07T19:07:16Z</time>
      </trkpt>
      <trkpt lat="-17.56796" lon="-149.5272">
        <ele>649.507812</ele>
        <time>2012-05-07T19:07:34Z</time>
      </trkpt>
      <trkpt lat="-17.56785" lon="-149.52718">
        <ele>648.546387</ele>
        <time>2012-05-07T19:07:52Z</time>
      </trkpt>
      <trkpt lat="-17.56775" lon="-149.5272">
        <ele>646.624023</ele>
        <time>2012-05-07T19:08:08Z</time>
      </trkpt>
      <trkpt lat="-17.56765" lon="-149.52724">
        <ele>644.701172</ele>
        <time>2012-05-07T19:08:25Z</time>
      </trkpt>
      <trkpt lat="-17.56754" lon="-149.52731">
        <ele>643.73999</ele>
        <time>2012-05-07T19:08:41Z</time>
      </trkpt>
      <trkpt lat="-17.56744" lon="-149.52734">
        <ele>643.73999</ele>
        <time>2012-05-07T19:08:52Z</time>
      </trkpt>
      <trkpt lat="-17.56734" lon="-149.52741">
        <ele>642.298096</ele>
        <time>2012-05-07T19:09:12Z</time>
      </trkpt>
      <trkpt lat="-17.56718" lon="-149.5275">
        <ele>642.298096</ele>
        <time>2012-05-07T19:09:33Z</time>
      </trkpt>
      <trkpt lat="-17.56708" lon="-149.52758">
        <ele>641.817383</ele>
        <time>2012-05-07T19:09:52Z</time>
      </trkpt>
      <trkpt lat="-17.56699" lon="-149.52766">
        <ele>642.298096</ele>
        <time>2012-05-07T19:10:10Z</time>
      </trkpt>
      <trkpt lat="-17.56686" lon="-149.52776">
        <ele>642.298096</ele>
        <time>2012-05-07T19:10:31Z</time>
      </trkpt>
      <trkpt lat="-17.56671" lon="-149.52782">
        <ele>641.33667</ele>
        <time>2012-05-07T19:10:47Z</time>
      </trkpt>
      <trkpt lat="-17.56664" lon="-149.52787">
        <ele>640.855957</ele>
        <time>2012-05-07T19:11:02Z</time>
      </trkpt>
      <trkpt lat="-17.56657" lon="-149.52793">
        <ele>640.375488</ele>
        <time>2012-05-07T19:11:19Z</time>
      </trkpt>
      <trkpt lat="-17.56657" lon="-149.52793">
        <ele>640.375488</ele>
        <time>2012-05-07T19:11:44Z</time>
      </trkpt>
      <trkpt lat="-17.56651" lon="-149.52799">
        <ele>639.894775</ele>
        <time>2012-05-07T19:12:07Z</time>
      </trkpt>
      <trkpt lat="-17.56638" lon="-149.5281">
        <ele>639.414062</ele>
        <time>2012-05-07T19:12:26Z</time>
      </trkpt>
      <trkpt lat="-17.56635" lon="-149.52814">
        <ele>639.414062</ele>
        <time>2012-05-07T19:12:31Z</time>
      </trkpt>
      <trkpt lat="-17.56619" lon="-149.5283">
        <ele>641.33667</ele>
        <time>2012-05-07T19:12:53Z</time>
      </trkpt>
      <trkpt lat="-17.56608" lon="-149.52838">
        <ele>643.259277</ele>
        <time>2012-05-07T19:13:11Z</time>
      </trkpt>
      <trkpt lat="-17.56592" lon="-149.52844">
        <ele>642.778809</ele>
        <time>2012-05-07T19:13:29Z</time>
      </trkpt>
      <trkpt lat="-17.56579" lon="-149.52849">
        <ele>640.375488</ele>
        <time>2012-05-07T19:13:47Z</time>
      </trkpt>
      <trkpt lat="-17.56571" lon="-149.52857">
        <ele>637.010742</ele>
        <time>2012-05-07T19:14:01Z</time>
      </trkpt>
      <trkpt lat="-17.56563" lon="-149.52868">
        <ele>635.088135</ele>
        <time>2012-05-07T19:14:15Z</time>
      </trkpt>
      <trkpt lat="-17.56554" lon="-149.52869">
        <ele>633.645996</ele>
        <time>2012-05-07T19:14:31Z</time>
      </trkpt>
      <trkpt lat="-17.56554" lon="-149.5286">
        <ele>631.24292</ele>
        <time>2012-05-07T19:14:48Z</time>
      </trkpt>
      <trkpt lat="-17.56541" lon="-149.52863">
        <ele>628.8396</ele>
        <time>2012-05-07T19:15:06Z</time>
      </trkpt>
      <trkpt lat="-17.56536" lon="-149.5287">
        <ele>626.436279</ele>
        <time>2012-05-07T19:15:18Z</time>
      </trkpt>
      <trkpt lat="-17.56526" lon="-149.52876">
        <ele>624.032959</ele>
        <time>2012-05-07T19:15:32Z</time>
      </trkpt>
      <trkpt lat="-17.56517" lon="-149.52883">
        <ele>622.110352</ele>
        <time>2012-05-07T19:15:48Z</time>
      </trkpt>
      <trkpt lat="-17.56515" lon="-149.52883">
        <ele>621.14917</ele>
        <time>2012-05-07T19:15:51Z</time>
      </trkpt>
      <trkpt lat="-17.56504" lon="-149.52887">
        <ele>619.707031</ele>
        <time>2012-05-07T19:16:06Z</time>
      </trkpt>
      <trkpt lat="-17.56492" lon="-149.52893">
        <ele>617.303711</ele>
        <time>2012-05-07T19:16:23Z</time>
      </trkpt>
      <trkpt lat="-17.5648" lon="-149.52898">
        <ele>615.861816</ele>
        <time>2012-05-07T19:16:40Z</time>
      </trkpt>
      <trkpt lat="-17.56472" lon="-149.52906">
        <ele>613.458496</ele>
        <time>2012-05-07T19:16:54Z</time>
      </trkpt>
      <trkpt lat="-17.56461" lon="-149.52914">
        <ele>611.055176</ele>
        <time>2012-05-07T19:17:08Z</time>
      </trkpt>
      <trkpt lat="-17.56454" lon="-149.52922">
        <ele>611.535889</ele>
        <time>2012-05-07T19:17:29Z</time>
      </trkpt>
      <trkpt lat="-17.56451" lon="-149.52919">
        <ele>610.574463</ele>
        <time>2012-05-07T19:17:53Z</time>
      </trkpt>
      <trkpt lat="-17.56462" lon="-149.52906">
        <ele>610.09375</ele>
        <time>2012-05-07T19:18:09Z</time>
      </trkpt>
      <trkpt lat="-17.5645" lon="-149.52902">
        <ele>607.690674</ele>
        <time>2012-05-07T19:18:25Z</time>
      </trkpt>
      <trkpt lat="-17.56447" lon="-149.529">
        <ele>606.729248</ele>
        <time>2012-05-07T19:18:38Z</time>
      </trkpt>
      <trkpt lat="-17.56448" lon="-149.52898">
        <ele>607.209961</ele>
        <time>2012-05-07T19:18:57Z</time>
      </trkpt>
      <trkpt lat="-17.56449" lon="-149.529">
        <ele>607.209961</ele>
        <time>2012-05-07T19:19:16Z</time>
      </trkpt>
      <trkpt lat="-17.56447" lon="-149.52905">
        <ele>606.248535</ele>
        <time>2012-05-07T19:19:22Z</time>
      </trkpt>
      <trkpt lat="-17.5644" lon="-149.52909">
        <ele>605.287354</ele>
        <time>2012-05-07T19:19:28Z</time>
      </trkpt>
      <trkpt lat="-17.56419" lon="-149.52913">
        <ele>603.364502</ele>
        <time>2012-05-07T19:19:45Z</time>
      </trkpt>
      <trkpt lat="-17.564" lon="-149.52922">
        <ele>599.519287</ele>
        <time>2012-05-07T19:19:59Z</time>
      </trkpt>
      <trkpt lat="-17.56392" lon="-149.52941">
        <ele>597.115967</ele>
        <time>2012-05-07T19:20:15Z</time>
      </trkpt>
      <trkpt lat="-17.56396" lon="-149.52955">
        <ele>593.751465</ele>
        <time>2012-05-07T19:20:32Z</time>
      </trkpt>
      <trkpt lat="-17.56395" lon="-149.52966">
        <ele>592.30957</ele>
        <time>2012-05-07T19:20:46Z</time>
      </trkpt>
      <trkpt lat="-17.56396" lon="-149.52967">
        <ele>592.30957</ele>
        <time>2012-05-07T19:20:47Z</time>
      </trkpt>
      <trkpt lat="-17.56396" lon="-149.52976">
        <ele>591.348145</ele>
        <time>2012-05-07T19:21:03Z</time>
      </trkpt>
      <trkpt lat="-17.56392" lon="-149.5298">
        <ele>591.348145</ele>
        <time>2012-05-07T19:21:19Z</time>
      </trkpt>
      <trkpt lat="-17.56384" lon="-149.52989">
        <ele>589.90625</ele>
        <time>2012-05-07T19:21:37Z</time>
      </trkpt>
      <trkpt lat="-17.56376" lon="-149.53">
        <ele>588.464355</ele>
        <time>2012-05-07T19:21:52Z</time>
      </trkpt>
      <trkpt lat="-17.56375" lon="-149.53002">
        <ele>587.502686</ele>
        <time>2012-05-07T19:21:54Z</time>
      </trkpt>
      <trkpt lat="-17.56364" lon="-149.53006">
        <ele>587.021973</ele>
        <time>2012-05-07T19:22:07Z</time>
      </trkpt>
      <trkpt lat="-17.56358" lon="-149.53003">
        <ele>585.580078</ele>
        <time>2012-05-07T19:22:21Z</time>
      </trkpt>
      <trkpt lat="-17.5635" lon="-149.53017">
        <ele>585.099609</ele>
        <time>2012-05-07T19:22:39Z</time>
      </trkpt>
      <trkpt lat="-17.56347" lon="-149.53021">
        <ele>585.099609</ele>
        <time>2012-05-07T19:22:55Z</time>
      </trkpt>
      <trkpt lat="-17.56347" lon="-149.53022">
        <ele>584.618896</ele>
        <time>2012-05-07T19:23:23Z</time>
      </trkpt>
      <trkpt lat="-17.56347" lon="-149.53021">
        <ele>584.618896</ele>
        <time>2012-05-07T19:23:55Z</time>
      </trkpt>
      <trkpt lat="-17.56347" lon="-149.53021">
        <ele>584.138184</ele>
        <time>2012-05-07T19:24:28Z</time>
      </trkpt>
      <trkpt lat="-17.56348" lon="-149.53018">
        <ele>584.138184</ele>
        <time>2012-05-07T19:24:41Z</time>
      </trkpt>
      <trkpt lat="-17.56346" lon="-149.53022">
        <ele>584.138184</ele>
        <time>2012-05-07T19:25:02Z</time>
      </trkpt>
      <trkpt lat="-17.56344" lon="-149.53025">
        <ele>583.657471</ele>
        <time>2012-05-07T19:25:16Z</time>
      </trkpt>
      <trkpt lat="-17.56344" lon="-149.53027">
        <ele>583.657471</ele>
        <time>2012-05-07T19:25:53Z</time>
      </trkpt>
      <trkpt lat="-17.56344" lon="-149.53025">
        <ele>583.176758</ele>
        <time>2012-05-07T19:26:18Z</time>
      </trkpt>
      <trkpt lat="-17.56342" lon="-149.53026">
        <ele>583.657471</ele>
        <time>2012-05-07T19:26:44Z</time>
      </trkpt>
      <trkpt lat="-17.56344" lon="-149.53027">
        <ele>583.176758</ele>
        <time>2012-05-07T19:27:32Z</time>
      </trkpt>
      <trkpt lat="-17.56342" lon="-149.53028">
        <ele>583.176758</ele>
        <time>2012-05-07T19:28:01Z</time>
      </trkpt>
      <trkpt lat="-17.56344" lon="-149.53024">
        <ele>582.215576</ele>
        <time>2012-05-07T19:28:27Z</time>
      </trkpt>
      <trkpt lat="-17.56346" lon="-149.53014">
        <ele>583.176758</ele>
        <time>2012-05-07T19:28:42Z</time>
      </trkpt>
      <trkpt lat="-17.56346" lon="-149.53013">
        <ele>582.696289</ele>
        <time>2012-05-07T19:28:44Z</time>
      </trkpt>
      <trkpt lat="-17.56355" lon="-149.53006">
        <ele>586.060791</ele>
        <time>2012-05-07T19:29:00Z</time>
      </trkpt>
      <trkpt lat="-17.56368" lon="-149.52993">
        <ele>585.580078</ele>
        <time>2012-05-07T19:29:17Z</time>
      </trkpt>
      <trkpt lat="-17.56374" lon="-149.52985">
        <ele>584.618896</ele>
        <time>2012-05-07T19:29:26Z</time>
      </trkpt>
      <trkpt lat="-17.56376" lon="-149.52973">
        <ele>584.618896</ele>
        <time>2012-05-07T19:29:36Z</time>
      </trkpt>
      <trkpt lat="-17.56367" lon="-149.52959">
        <ele>584.618896</ele>
        <time>2012-05-07T19:29:54Z</time>
      </trkpt>
      <trkpt lat="-17.5636" lon="-149.52944">
        <ele>583.657471</ele>
        <time>2012-05-07T19:30:09Z</time>
      </trkpt>
      <trkpt lat="-17.56361" lon="-149.52937">
        <ele>582.215576</ele>
        <time>2012-05-07T19:30:19Z</time>
      </trkpt>
      <trkpt lat="-17.56368" lon="-149.5292">
        <ele>579.812256</ele>
        <time>2012-05-07T19:30:37Z</time>
      </trkpt>
      <trkpt lat="-17.56359" lon="-149.52927">
        <ele>576.928467</ele>
        <time>2012-05-07T19:30:52Z</time>
      </trkpt>
      <trkpt lat="-17.56355" lon="-149.52929">
        <ele>576.447754</ele>
        <time>2012-05-07T19:30:57Z</time>
      </trkpt>
      <trkpt lat="-17.5635" lon="-149.5293">
        <ele>575.486328</ele>
        <time>2012-05-07T19:31:02Z</time>
      </trkpt>
      <trkpt lat="-17.56334" lon="-149.52936">
        <ele>573.563965</ele>
        <time>2012-05-07T19:31:17Z</time>
      </trkpt>
      <trkpt lat="-17.56318" lon="-149.52942">
        <ele>570.198975</ele>
        <time>2012-05-07T19:31:32Z</time>
      </trkpt>
      <trkpt lat="-17.56308" lon="-149.52955">
        <ele>567.795654</ele>
        <time>2012-05-07T19:31:46Z</time>
      </trkpt>
      <trkpt lat="-17.56312" lon="-149.52971">
        <ele>564.911865</ele>
        <time>2012-05-07T19:32:02Z</time>
      </trkpt>
      <trkpt lat="-17.56308" lon="-149.52979">
        <ele>563.950439</ele>
        <time>2012-05-07T19:32:15Z</time>
      </trkpt>
      <trkpt lat="-17.56303" lon="-149.52988">
        <ele>560.105225</ele>
        <time>2012-05-07T19:32:28Z</time>
      </trkpt>
      <trkpt lat="-17.56302" lon="-149.52988">
        <ele>560.105225</ele>
        <time>2012-05-07T19:32:29Z</time>
      </trkpt>
      <trkpt lat="-17.56289" lon="-149.53">
        <ele>559.144043</ele>
        <time>2012-05-07T19:32:43Z</time>
      </trkpt>
      <trkpt lat="-17.56277" lon="-149.53003">
        <ele>556.26001</ele>
        <time>2012-05-07T19:32:59Z</time>
      </trkpt>
      <trkpt lat="-17.56264" lon="-149.53008">
        <ele>554.337402</ele>
        <time>2012-05-07T19:33:16Z</time>
      </trkpt>
      <trkpt lat="-17.56256" lon="-149.53005">
        <ele>552.895264</ele>
        <time>2012-05-07T19:33:31Z</time>
      </trkpt>
      <trkpt lat="-17.56255" lon="-149.53005">
        <ele>550.492188</ele>
        <time>2012-05-07T19:33:42Z</time>
      </trkpt>
      <trkpt lat="-17.56259" lon="-149.53001">
        <ele>550.011475</ele>
        <time>2012-05-07T19:33:49Z</time>
      </trkpt>
      <trkpt lat="-17.56268" lon="-149.52993">
        <ele>547.127441</ele>
        <time>2012-05-07T19:34:04Z</time>
      </trkpt>
      <trkpt lat="-17.56274" lon="-149.52982">
        <ele>544.724243</ele>
        <time>2012-05-07T19:34:14Z</time>
      </trkpt>
      <trkpt lat="-17.56273" lon="-149.52964">
        <ele>543.762817</ele>
        <time>2012-05-07T19:34:30Z</time>
      </trkpt>
      <trkpt lat="-17.56271" lon="-149.52946">
        <ele>541.84021</ele>
        <time>2012-05-07T19:34:44Z</time>
      </trkpt>
      <trkpt lat="-17.56268" lon="-149.52935">
        <ele>540.878906</ele>
        <time>2012-05-07T19:34:53Z</time>
      </trkpt>
      <trkpt lat="-17.56261" lon="-149.52936">
        <ele>538.956299</ele>
        <time>2012-05-07T19:35:08Z</time>
      </trkpt>
      <trkpt lat="-17.5626" lon="-149.52951">
        <ele>536.072388</ele>
        <time>2012-05-07T19:35:24Z</time>
      </trkpt>
      <trkpt lat="-17.56254" lon="-149.52959">
        <ele>534.149658</ele>
        <time>2012-05-07T19:35:36Z</time>
      </trkpt>
      <trkpt lat="-17.56246" lon="-149.5296">
        <ele>532.227051</ele>
        <time>2012-05-07T19:35:54Z</time>
      </trkpt>
      <trkpt lat="-17.56241" lon="-149.52959">
        <ele>531.746338</ele>
        <time>2012-05-07T19:36:00Z</time>
      </trkpt>
      <trkpt lat="-17.56221" lon="-149.52968">
        <ele>529.34314</ele>
        <time>2012-05-07T19:36:16Z</time>
      </trkpt>
      <trkpt lat="-17.5621" lon="-149.52973">
        <ele>527.42041</ele>
        <time>2012-05-07T19:36:32Z</time>
      </trkpt>
      <trkpt lat="-17.56196" lon="-149.52992">
        <ele>526.459106</ele>
        <time>2012-05-07T19:36:47Z</time>
      </trkpt>
      <trkpt lat="-17.56187" lon="-149.53006">
        <ele>524.055786</ele>
        <time>2012-05-07T19:36:59Z</time>
      </trkpt>
      <trkpt lat="-17.56183" lon="-149.53009">
        <ele>524.055786</ele>
        <time>2012-05-07T19:37:02Z</time>
      </trkpt>
      <trkpt lat="-17.56167" lon="-149.53033">
        <ele>521.171997</ele>
        <time>2012-05-07T19:37:19Z</time>
      </trkpt>
      <trkpt lat="-17.56165" lon="-149.53033">
        <ele>520.691284</ele>
        <time>2012-05-07T19:37:22Z</time>
      </trkpt>
      <trkpt lat="-17.56164" lon="-149.53025">
        <ele>518.287842</ele>
        <time>2012-05-07T19:37:34Z</time>
      </trkpt>
      <trkpt lat="-17.56169" lon="-149.53015">
        <ele>517.32666</ele>
        <time>2012-05-07T19:37:48Z</time>
      </trkpt>
      <trkpt lat="-17.56171" lon="-149.53008">
        <ele>514.92334</ele>
        <time>2012-05-07T19:38:02Z</time>
      </trkpt>
      <trkpt lat="-17.56171" lon="-149.53003">
        <ele>514.92334</ele>
        <time>2012-05-07T19:38:08Z</time>
      </trkpt>
      <trkpt lat="-17.56181" lon="-149.52987">
        <ele>513.962036</ele>
        <time>2012-05-07T19:38:22Z</time>
      </trkpt>
      <trkpt lat="-17.56189" lon="-149.52973">
        <ele>513.481445</ele>
        <time>2012-05-07T19:38:37Z</time>
      </trkpt>
      <trkpt lat="-17.56199" lon="-149.52959">
        <ele>511.558716</ele>
        <time>2012-05-07T19:38:51Z</time>
      </trkpt>
      <trkpt lat="-17.56198" lon="-149.52951">
        <ele>510.116699</ele>
        <time>2012-05-07T19:38:57Z</time>
      </trkpt>
      <trkpt lat="-17.56191" lon="-149.52955">
        <ele>508.194092</ele>
        <time>2012-05-07T19:39:09Z</time>
      </trkpt>
      <trkpt lat="-17.5619" lon="-149.52956">
        <ele>508.674683</ele>
        <time>2012-05-07T19:39:10Z</time>
      </trkpt>
      <trkpt lat="-17.5618" lon="-149.52956">
        <ele>507.713501</ele>
        <time>2012-05-07T19:39:25Z</time>
      </trkpt>
      <trkpt lat="-17.56173" lon="-149.52958">
        <ele>506.752075</ele>
        <time>2012-05-07T19:39:37Z</time>
      </trkpt>
      <trkpt lat="-17.5617" lon="-149.5296">
        <ele>505.310181</ele>
        <time>2012-05-07T19:39:40Z</time>
      </trkpt>
      <trkpt lat="-17.56163" lon="-149.52972">
        <ele>505.310181</ele>
        <time>2012-05-07T19:39:53Z</time>
      </trkpt>
      <trkpt lat="-17.5615" lon="-149.52985">
        <ele>503.387451</ele>
        <time>2012-05-07T19:40:10Z</time>
      </trkpt>
      <trkpt lat="-17.56136" lon="-149.53011">
        <ele>500.984131</ele>
        <time>2012-05-07T19:40:29Z</time>
      </trkpt>
      <trkpt lat="-17.56121" lon="-149.53031">
        <ele>498.580933</ele>
        <time>2012-05-07T19:40:45Z</time>
      </trkpt>
      <trkpt lat="-17.56117" lon="-149.5304">
        <ele>498.100342</ele>
        <time>2012-05-07T19:40:51Z</time>
      </trkpt>
      <trkpt lat="-17.56122" lon="-149.5306">
        <ele>496.177734</ele>
        <time>2012-05-07T19:41:06Z</time>
      </trkpt>
      <trkpt lat="-17.56139" lon="-149.53069">
        <ele>495.216187</ele>
        <time>2012-05-07T19:41:19Z</time>
      </trkpt>
      <trkpt lat="-17.5614" lon="-149.53071">
        <ele>494.735596</ele>
        <time>2012-05-07T19:41:21Z</time>
      </trkpt>
      <trkpt lat="-17.56152" lon="-149.53078">
        <ele>492.332397</ele>
        <time>2012-05-07T19:41:34Z</time>
      </trkpt>
      <trkpt lat="-17.56161" lon="-149.53085">
        <ele>491.370972</ele>
        <time>2012-05-07T19:41:49Z</time>
      </trkpt>
      <trkpt lat="-17.56174" lon="-149.53077">
        <ele>491.370972</ele>
        <time>2012-05-07T19:42:16Z</time>
      </trkpt>
      <trkpt lat="-17.56183" lon="-149.5309">
        <ele>488.967773</ele>
        <time>2012-05-07T19:42:27Z</time>
      </trkpt>
      <trkpt lat="-17.56191" lon="-149.53099">
        <ele>488.00647</ele>
        <time>2012-05-07T19:42:37Z</time>
      </trkpt>
      <trkpt lat="-17.562" lon="-149.53103">
        <ele>486.08374</ele>
        <time>2012-05-07T19:42:48Z</time>
      </trkpt>
      <trkpt lat="-17.56215" lon="-149.53103">
        <ele>484.641846</ele>
        <time>2012-05-07T19:43:02Z</time>
      </trkpt>
      <trkpt lat="-17.56227" lon="-149.53106">
        <ele>483.199829</ele>
        <time>2012-05-07T19:43:15Z</time>
      </trkpt>
      <trkpt lat="-17.56238" lon="-149.53116">
        <ele>482.238525</ele>
        <time>2012-05-07T19:43:26Z</time>
      </trkpt>
      <trkpt lat="-17.56244" lon="-149.53129">
        <ele>480.796631</ele>
        <time>2012-05-07T19:43:40Z</time>
      </trkpt>
      <trkpt lat="-17.5624" lon="-149.53145">
        <ele>479.354492</ele>
        <time>2012-05-07T19:44:01Z</time>
      </trkpt>
      <trkpt lat="-17.56228" lon="-149.53159">
        <ele>477.912476</ele>
        <time>2012-05-07T19:44:15Z</time>
      </trkpt>
      <trkpt lat="-17.56225" lon="-149.53163">
        <ele>477.431885</ele>
        <time>2012-05-07T19:44:19Z</time>
      </trkpt>
      <trkpt lat="-17.5621" lon="-149.53174">
        <ele>474.067261</ele>
        <time>2012-05-07T19:44:33Z</time>
      </trkpt>
      <trkpt lat="-17.56209" lon="-149.53175">
        <ele>473.58667</ele>
        <time>2012-05-07T19:44:34Z</time>
      </trkpt>
      <trkpt lat="-17.56194" lon="-149.5319">
        <ele>473.106079</ele>
        <time>2012-05-07T19:44:51Z</time>
      </trkpt>
      <trkpt lat="-17.56188" lon="-149.53199">
        <ele>472.144653</ele>
        <time>2012-05-07T19:45:06Z</time>
      </trkpt>
      <trkpt lat="-17.56175" lon="-149.53214">
        <ele>469.260742</ele>
        <time>2012-05-07T19:45:25Z</time>
      </trkpt>
      <trkpt lat="-17.56162" lon="-149.53229">
        <ele>468.299316</ele>
        <time>2012-05-07T19:45:41Z</time>
      </trkpt>
      <trkpt lat="-17.56152" lon="-149.53237">
        <ele>467.818726</ele>
        <time>2012-05-07T19:45:52Z</time>
      </trkpt>
      <trkpt lat="-17.56135" lon="-149.53249">
        <ele>465.415527</ele>
        <time>2012-05-07T19:46:09Z</time>
      </trkpt>
      <trkpt lat="-17.56115" lon="-149.53256">
        <ele>464.934814</ele>
        <time>2012-05-07T19:46:24Z</time>
      </trkpt>
      <trkpt lat="-17.56111" lon="-149.53257">
        <ele>463.492798</ele>
        <time>2012-05-07T19:46:27Z</time>
      </trkpt>
      <trkpt lat="-17.56098" lon="-149.53259">
        <ele>462.531372</ele>
        <time>2012-05-07T19:46:42Z</time>
      </trkpt>
      <trkpt lat="-17.56075" lon="-149.53261">
        <ele>461.089478</ele>
        <time>2012-05-07T19:47:01Z</time>
      </trkpt>
      <trkpt lat="-17.56061" lon="-149.53271">
        <ele>458.686157</ele>
        <time>2012-05-07T19:47:16Z</time>
      </trkpt>
      <trkpt lat="-17.56074" lon="-149.53277">
        <ele>456.282959</ele>
        <time>2012-05-07T19:47:34Z</time>
      </trkpt>
      <trkpt lat="-17.56085" lon="-149.53282">
        <ele>455.321533</ele>
        <time>2012-05-07T19:47:48Z</time>
      </trkpt>
      <trkpt lat="-17.56086" lon="-149.53283">
        <ele>453.879639</ele>
        <time>2012-05-07T19:47:50Z</time>
      </trkpt>
      <trkpt lat="-17.56102" lon="-149.53289">
        <ele>451.957031</ele>
        <time>2012-05-07T19:48:06Z</time>
      </trkpt>
      <trkpt lat="-17.56121" lon="-149.53292">
        <ele>449.072998</ele>
        <time>2012-05-07T19:48:23Z</time>
      </trkpt>
      <trkpt lat="-17.56139" lon="-149.53291">
        <ele>445.708374</ele>
        <time>2012-05-07T19:48:38Z</time>
      </trkpt>
      <trkpt lat="-17.56153" lon="-149.53281">
        <ele>445.227661</ele>
        <time>2012-05-07T19:48:54Z</time>
      </trkpt>
      <trkpt lat="-17.56166" lon="-149.53278">
        <ele>442.824463</ele>
        <time>2012-05-07T19:49:06Z</time>
      </trkpt>
      <trkpt lat="-17.56177" lon="-149.53273">
        <ele>440.421265</ele>
        <time>2012-05-07T19:49:20Z</time>
      </trkpt>
      <trkpt lat="-17.56191" lon="-149.53272">
        <ele>439.459717</ele>
        <time>2012-05-07T19:49:35Z</time>
      </trkpt>
      <trkpt lat="-17.56207" lon="-149.53268">
        <ele>438.498535</ele>
        <time>2012-05-07T19:49:49Z</time>
      </trkpt>
      <trkpt lat="-17.56217" lon="-149.53273">
        <ele>436.575928</ele>
        <time>2012-05-07T19:50:05Z</time>
      </trkpt>
      <trkpt lat="-17.56233" lon="-149.53275">
        <ele>433.691895</ele>
        <time>2012-05-07T19:50:20Z</time>
      </trkpt>
      <trkpt lat="-17.56255" lon="-149.53271">
        <ele>431.288574</ele>
        <time>2012-05-07T19:50:36Z</time>
      </trkpt>
      <trkpt lat="-17.56258" lon="-149.53268">
        <ele>431.288574</ele>
        <time>2012-05-07T19:50:39Z</time>
      </trkpt>
      <trkpt lat="-17.56276" lon="-149.53258">
        <ele>429.365967</ele>
        <time>2012-05-07T19:50:55Z</time>
      </trkpt>
      <trkpt lat="-17.56281" lon="-149.53253">
        <ele>428.404663</ele>
        <time>2012-05-07T19:51:02Z</time>
      </trkpt>
      <trkpt lat="-17.56289" lon="-149.53246">
        <ele>427.443359</ele>
        <time>2012-05-07T19:51:17Z</time>
      </trkpt>
      <trkpt lat="-17.56297" lon="-149.53243">
        <ele>426.001343</ele>
        <time>2012-05-07T19:51:32Z</time>
      </trkpt>
      <trkpt lat="-17.56313" lon="-149.5324">
        <ele>424.078735</ele>
        <time>2012-05-07T19:51:46Z</time>
      </trkpt>
      <trkpt lat="-17.56328" lon="-149.5324">
        <ele>423.117432</ele>
        <time>2012-05-07T19:52:00Z</time>
      </trkpt>
      <trkpt lat="-17.56339" lon="-149.53237">
        <ele>423.117432</ele>
        <time>2012-05-07T19:52:18Z</time>
      </trkpt>
      <trkpt lat="-17.56345" lon="-149.53242">
        <ele>422.636719</ele>
        <time>2012-05-07T19:52:33Z</time>
      </trkpt>
      <trkpt lat="-17.56353" lon="-149.53235">
        <ele>422.156006</ele>
        <time>2012-05-07T19:52:54Z</time>
      </trkpt>
      <trkpt lat="-17.56352" lon="-149.53237">
        <ele>417.349609</ele>
        <time>2012-05-07T19:53:00Z</time>
      </trkpt>
      <trkpt lat="-17.56352" lon="-149.53237">
        <ele>413.504272</ele>
        <time>2012-05-07T19:53:01Z</time>
      </trkpt>
      <trkpt lat="-17.56353" lon="-149.53237">
        <ele>421.675415</ele>
        <time>2012-05-07T19:53:02Z</time>
      </trkpt>
      <trkpt lat="-17.56356" lon="-149.53237">
        <ele>420.714111</ele>
        <time>2012-05-07T19:53:07Z</time>
      </trkpt>
      <trkpt lat="-17.56351" lon="-149.53228">
        <ele>422.156006</ele>
        <time>2012-05-07T19:53:33Z</time>
      </trkpt>
      <trkpt lat="-17.5635" lon="-149.53228">
        <ele>422.156006</ele>
        <time>2012-05-07T19:53:34Z</time>
      </trkpt>
      <trkpt lat="-17.56352" lon="-149.53231">
        <ele>420.233398</ele>
        <time>2012-05-07T19:53:43Z</time>
      </trkpt>
      <trkpt lat="-17.56336" lon="-149.53264">
        <ele>416.388184</ele>
        <time>2012-05-07T19:53:54Z</time>
      </trkpt>
      <trkpt lat="-17.56325" lon="-149.53294">
        <ele>413.02356</ele>
        <time>2012-05-07T19:54:01Z</time>
      </trkpt>
      <trkpt lat="-17.56323" lon="-149.53304">
        <ele>412.062256</ele>
        <time>2012-05-07T19:54:04Z</time>
      </trkpt>
      <trkpt lat="-17.56328" lon="-149.53316">
        <ele>410.139648</ele>
        <time>2012-05-07T19:54:07Z</time>
      </trkpt>
      <trkpt lat="-17.56335" lon="-149.53327">
        <ele>408.697632</ele>
        <time>2012-05-07T19:54:09Z</time>
      </trkpt>
      <trkpt lat="-17.56345" lon="-149.53343">
        <ele>406.774902</ele>
        <time>2012-05-07T19:54:12Z</time>
      </trkpt>
      <trkpt lat="-17.56343" lon="-149.53371">
        <ele>402.929688</ele>
        <time>2012-05-07T19:54:17Z</time>
      </trkpt>
      <trkpt lat="-17.56332" lon="-149.53387">
        <ele>400.526489</ele>
        <time>2012-05-07T19:54:21Z</time>
      </trkpt>
      <trkpt lat="-17.56315" lon="-149.53398">
        <ele>398.60376</ele>
        <time>2012-05-07T19:54:27Z</time>
      </trkpt>
      <trkpt lat="-17.563" lon="-149.53413">
        <ele>395.239136</ele>
        <time>2012-05-07T19:54:34Z</time>
      </trkpt>
      <trkpt lat="-17.56271" lon="-149.5343">
        <ele>391.874512</ele>
        <time>2012-05-07T19:54:44Z</time>
      </trkpt>
      <trkpt lat="-17.56269" lon="-149.53431">
        <ele>391.874512</ele>
        <time>2012-05-07T19:54:45Z</time>
      </trkpt>
      <trkpt lat="-17.56251" lon="-149.5344">
        <ele>388.990601</ele>
        <time>2012-05-07T19:54:58Z</time>
      </trkpt>
      <trkpt lat="-17.56226" lon="-149.53446">
        <ele>385.625977</ele>
        <time>2012-05-07T19:55:08Z</time>
      </trkpt>
      <trkpt lat="-17.56224" lon="-149.53446">
        <ele>385.145386</ele>
        <time>2012-05-07T19:55:09Z</time>
      </trkpt>
      <trkpt lat="-17.56208" lon="-149.53446">
        <ele>382.261353</ele>
        <time>2012-05-07T19:55:19Z</time>
      </trkpt>
      <trkpt lat="-17.56203" lon="-149.53444">
        <ele>381.300049</ele>
        <time>2012-05-07T19:55:35Z</time>
      </trkpt>
      <trkpt lat="-17.56182" lon="-149.53455">
        <ele>377.935425</ele>
        <time>2012-05-07T19:55:43Z</time>
      </trkpt>
      <trkpt lat="-17.56179" lon="-149.53457">
        <ele>377.454834</ele>
        <time>2012-05-07T19:55:44Z</time>
      </trkpt>
      <trkpt lat="-17.56173" lon="-149.53463">
        <ele>376.012817</ele>
        <time>2012-05-07T19:55:46Z</time>
      </trkpt>
      <trkpt lat="-17.56165" lon="-149.53468">
        <ele>375.051514</ele>
        <time>2012-05-07T19:55:48Z</time>
      </trkpt>
      <trkpt lat="-17.56152" lon="-149.53474">
        <ele>371.68689</ele>
        <time>2012-05-07T19:55:52Z</time>
      </trkpt>
      <trkpt lat="-17.56149" lon="-149.53474">
        <ele>371.68689</ele>
        <time>2012-05-07T19:55:53Z</time>
      </trkpt>
      <trkpt lat="-17.56128" lon="-149.5348">
        <ele>368.322266</ele>
        <time>2012-05-07T19:55:58Z</time>
      </trkpt>
      <trkpt lat="-17.5612" lon="-149.53486">
        <ele>366.880249</ele>
        <time>2012-05-07T19:56:00Z</time>
      </trkpt>
      <trkpt lat="-17.56102" lon="-149.53502">
        <ele>363.996338</ele>
        <time>2012-05-07T19:56:05Z</time>
      </trkpt>
      <trkpt lat="-17.56095" lon="-149.5351">
        <ele>362.07373</ele>
        <time>2012-05-07T19:56:07Z</time>
      </trkpt>
      <trkpt lat="-17.56085" lon="-149.5353">
        <ele>358.228394</ele>
        <time>2012-05-07T19:56:11Z</time>
      </trkpt>
      <trkpt lat="-17.56077" lon="-149.53545">
        <ele>356.786377</ele>
        <time>2012-05-07T19:56:14Z</time>
      </trkpt>
      <trkpt lat="-17.56065" lon="-149.53557">
        <ele>354.383179</ele>
        <time>2012-05-07T19:56:18Z</time>
      </trkpt>
      <trkpt lat="-17.56051" lon="-149.53561">
        <ele>351.499146</ele>
        <time>2012-05-07T19:56:22Z</time>
      </trkpt>
      <trkpt lat="-17.56041" lon="-149.53561">
        <ele>349.576538</ele>
        <time>2012-05-07T19:56:24Z</time>
      </trkpt>
      <trkpt lat="-17.56019" lon="-149.53568">
        <ele>346.212036</ele>
        <time>2012-05-07T19:56:29Z</time>
      </trkpt>
      <trkpt lat="-17.56014" lon="-149.5357">
        <ele>345.731323</ele>
        <time>2012-05-07T19:56:30Z</time>
      </trkpt>
      <trkpt lat="-17.55998" lon="-149.53573">
        <ele>343.808594</ele>
        <time>2012-05-07T19:56:33Z</time>
      </trkpt>
      <trkpt lat="-17.55989" lon="-149.5358">
        <ele>341.885986</ele>
        <time>2012-05-07T19:56:36Z</time>
      </trkpt>
      <trkpt lat="-17.55984" lon="-149.53601">
        <ele>339.002075</ele>
        <time>2012-05-07T19:56:41Z</time>
      </trkpt>
      <trkpt lat="-17.55984" lon="-149.53616">
        <ele>337.560059</ele>
        <time>2012-05-07T19:56:44Z</time>
      </trkpt>
      <trkpt lat="-17.55983" lon="-149.53638">
        <ele>334.195435</ele>
        <time>2012-05-07T19:56:48Z</time>
      </trkpt>
      <trkpt lat="-17.5598" lon="-149.53653">
        <ele>331.792114</ele>
        <time>2012-05-07T19:56:51Z</time>
      </trkpt>
      <trkpt lat="-17.55979" lon="-149.53658">
        <ele>330.35022</ele>
        <time>2012-05-07T19:56:52Z</time>
      </trkpt>
      <trkpt lat="-17.55967" lon="-149.53677">
        <ele>326.504883</ele>
        <time>2012-05-07T19:56:56Z</time>
      </trkpt>
      <trkpt lat="-17.55946" lon="-149.53696">
        <ele>322.178955</ele>
        <time>2012-05-07T19:57:00Z</time>
      </trkpt>
      <trkpt lat="-17.55921" lon="-149.53713">
        <ele>317.853027</ele>
        <time>2012-05-07T19:57:04Z</time>
      </trkpt>
      <trkpt lat="-17.55909" lon="-149.53722">
        <ele>314.488403</ele>
        <time>2012-05-07T19:57:06Z</time>
      </trkpt>
      <trkpt lat="-17.55895" lon="-149.53734">
        <ele>310.162476</ele>
        <time>2012-05-07T19:57:09Z</time>
      </trkpt>
      <trkpt lat="-17.55886" lon="-149.5374">
        <ele>308.239868</ele>
        <time>2012-05-07T19:57:11Z</time>
      </trkpt>
      <trkpt lat="-17.55856" lon="-149.5375">
        <ele>304.875244</ele>
        <time>2012-05-07T19:57:16Z</time>
      </trkpt>
      <trkpt lat="-17.55849" lon="-149.53751">
        <ele>303.433228</ele>
        <time>2012-05-07T19:57:17Z</time>
      </trkpt>
      <trkpt lat="-17.55811" lon="-149.53747">
        <ele>299.588013</ele>
        <time>2012-05-07T19:57:23Z</time>
      </trkpt>
      <trkpt lat="-17.55784" lon="-149.53754">
        <ele>295.261963</ele>
        <time>2012-05-07T19:57:28Z</time>
      </trkpt>
      <trkpt lat="-17.55766" lon="-149.53763">
        <ele>292.378174</ele>
        <time>2012-05-07T19:57:32Z</time>
      </trkpt>
      <trkpt lat="-17.55755" lon="-149.53766">
        <ele>291.416748</ele>
        <time>2012-05-07T19:57:34Z</time>
      </trkpt>
      <trkpt lat="-17.5574" lon="-149.53771">
        <ele>289.494141</ele>
        <time>2012-05-07T19:57:37Z</time>
      </trkpt>
      <trkpt lat="-17.55731" lon="-149.53774">
        <ele>288.532959</ele>
        <time>2012-05-07T19:57:39Z</time>
      </trkpt>
      <trkpt lat="-17.55703" lon="-149.53785">
        <ele>285.648804</ele>
        <time>2012-05-07T19:57:46Z</time>
      </trkpt>
      <trkpt lat="-17.55683" lon="-149.53797">
        <ele>282.765015</ele>
        <time>2012-05-07T19:57:50Z</time>
      </trkpt>
      <trkpt lat="-17.55658" lon="-149.53815">
        <ele>277.477661</ele>
        <time>2012-05-07T19:57:54Z</time>
      </trkpt>
      <trkpt lat="-17.55635" lon="-149.5383">
        <ele>274.59375</ele>
        <time>2012-05-07T19:57:58Z</time>
      </trkpt>
      <trkpt lat="-17.55628" lon="-149.53841">
        <ele>273.151855</ele>
        <time>2012-05-07T19:58:00Z</time>
      </trkpt>
      <trkpt lat="-17.55603" lon="-149.53867">
        <ele>271.229126</ele>
        <time>2012-05-07T19:58:05Z</time>
      </trkpt>
      <trkpt lat="-17.55585" lon="-149.53877">
        <ele>269.787109</ele>
        <time>2012-05-07T19:58:08Z</time>
      </trkpt>
      <trkpt lat="-17.55572" lon="-149.53884">
        <ele>268.345093</ele>
        <time>2012-05-07T19:58:10Z</time>
      </trkpt>
      <trkpt lat="-17.55559" lon="-149.53891">
        <ele>266.903198</ele>
        <time>2012-05-07T19:58:12Z</time>
      </trkpt>
      <trkpt lat="-17.55522" lon="-149.53897">
        <ele>262.577148</ele>
        <time>2012-05-07T19:58:17Z</time>
      </trkpt>
      <trkpt lat="-17.55503" lon="-149.53895">
        <ele>259.212646</ele>
        <time>2012-05-07T19:58:20Z</time>
      </trkpt>
      <trkpt lat="-17.55472" lon="-149.53896">
        <ele>256.328735</ele>
        <time>2012-05-07T19:58:27Z</time>
      </trkpt>
      <trkpt lat="-17.55443" lon="-149.53901">
        <ele>252.963989</ele>
        <time>2012-05-07T19:58:34Z</time>
      </trkpt>
      <trkpt lat="-17.55423" lon="-149.53907">
        <ele>250.0802</ele>
        <time>2012-05-07T19:58:39Z</time>
      </trkpt>
      <trkpt lat="-17.55411" lon="-149.53913">
        <ele>249.118774</ele>
        <time>2012-05-07T19:58:42Z</time>
      </trkpt>
      <trkpt lat="-17.55359" lon="-149.53917">
        <ele>244.792847</ele>
        <time>2012-05-07T19:58:52Z</time>
      </trkpt>
      <trkpt lat="-17.55338" lon="-149.53922">
        <ele>241.908936</ele>
        <time>2012-05-07T19:58:57Z</time>
      </trkpt>
      <trkpt lat="-17.55329" lon="-149.53922">
        <ele>240.467041</ele>
        <time>2012-05-07T19:58:59Z</time>
      </trkpt>
      <trkpt lat="-17.5531" lon="-149.53929">
        <ele>237.582886</ele>
        <time>2012-05-07T19:59:03Z</time>
      </trkpt>
      <trkpt lat="-17.55305" lon="-149.53931">
        <ele>237.102295</ele>
        <time>2012-05-07T19:59:04Z</time>
      </trkpt>
      <trkpt lat="-17.55294" lon="-149.53935">
        <ele>235.179688</ele>
        <time>2012-05-07T19:59:07Z</time>
      </trkpt>
      <trkpt lat="-17.55276" lon="-149.53938">
        <ele>232.776489</ele>
        <time>2012-05-07T19:59:11Z</time>
      </trkpt>
      <trkpt lat="-17.55268" lon="-149.53943">
        <ele>231.334351</ele>
        <time>2012-05-07T19:59:13Z</time>
      </trkpt>
      <trkpt lat="-17.55254" lon="-149.53945">
        <ele>229.411743</ele>
        <time>2012-05-07T19:59:16Z</time>
      </trkpt>
      <trkpt lat="-17.55236" lon="-149.53951">
        <ele>226.527832</ele>
        <time>2012-05-07T19:59:20Z</time>
      </trkpt>
      <trkpt lat="-17.55219" lon="-149.5396">
        <ele>225.085938</ele>
        <time>2012-05-07T19:59:24Z</time>
      </trkpt>
      <trkpt lat="-17.55189" lon="-149.53967">
        <ele>221.240601</ele>
        <time>2012-05-07T19:59:30Z</time>
      </trkpt>
      <trkpt lat="-17.55184" lon="-149.53968">
        <ele>221.240601</ele>
        <time>2012-05-07T19:59:31Z</time>
      </trkpt>
      <trkpt lat="-17.55178" lon="-149.53969">
        <ele>221.240601</ele>
        <time>2012-05-07T19:59:32Z</time>
      </trkpt>
      <trkpt lat="-17.55169" lon="-149.53969">
        <ele>219.317993</ele>
        <time>2012-05-07T19:59:34Z</time>
      </trkpt>
      <trkpt lat="-17.55158" lon="-149.53967">
        <ele>218.83728</ele>
        <time>2012-05-07T19:59:36Z</time>
      </trkpt>
      <trkpt lat="-17.55145" lon="-149.5396">
        <ele>218.83728</ele>
        <time>2012-05-07T19:59:39Z</time>
      </trkpt>
      <trkpt lat="-17.55125" lon="-149.5396">
        <ele>218.83728</ele>
        <time>2012-05-07T19:59:43Z</time>
      </trkpt>
      <trkpt lat="-17.55064" lon="-149.5396">
        <ele>217.875977</ele>
        <time>2012-05-07T19:59:55Z</time>
      </trkpt>
      <trkpt lat="-17.55038" lon="-149.53952">
        <ele>217.875977</ele>
        <time>2012-05-07T20:00:01Z</time>
      </trkpt>
      <trkpt lat="-17.55019" lon="-149.53954">
        <ele>217.395386</ele>
        <time>2012-05-07T20:00:05Z</time>
      </trkpt>
      <trkpt lat="-17.55003" lon="-149.53961">
        <ele>215.953247</ele>
        <time>2012-05-07T20:00:09Z</time>
      </trkpt>
      <trkpt lat="-17.54997" lon="-149.53983">
        <ele>214.51123</ele>
        <time>2012-05-07T20:00:14Z</time>
      </trkpt>
      <trkpt lat="-17.54997" lon="-149.5399">
        <ele>214.51123</ele>
        <time>2012-05-07T20:00:16Z</time>
      </trkpt>
      <trkpt lat="-17.54981" lon="-149.53995">
        <ele>213.550049</ele>
        <time>2012-05-07T20:00:21Z</time>
      </trkpt>
      <trkpt lat="-17.54972" lon="-149.53993">
        <ele>211.627441</ele>
        <time>2012-05-07T20:00:23Z</time>
      </trkpt>
      <trkpt lat="-17.54948" lon="-149.54001">
        <ele>208.743408</ele>
        <time>2012-05-07T20:00:27Z</time>
      </trkpt>
      <trkpt lat="-17.54938" lon="-149.54006">
        <ele>206.820679</ele>
        <time>2012-05-07T20:00:29Z</time>
      </trkpt>
      <trkpt lat="-17.5492" lon="-149.5401">
        <ele>203.93689</ele>
        <time>2012-05-07T20:00:32Z</time>
      </trkpt>
      <trkpt lat="-17.54896" lon="-149.54036">
        <ele>199.61084</ele>
        <time>2012-05-07T20:00:39Z</time>
      </trkpt>
      <trkpt lat="-17.54893" lon="-149.54041">
        <ele>200.091675</ele>
        <time>2012-05-07T20:00:40Z</time>
      </trkpt>
      <trkpt lat="-17.54867" lon="-149.54065">
        <ele>198.168945</ele>
        <time>2012-05-07T20:00:45Z</time>
      </trkpt>
      <trkpt lat="-17.5483" lon="-149.54085">
        <ele>194.804321</ele>
        <time>2012-05-07T20:00:51Z</time>
      </trkpt>
      <trkpt lat="-17.54817" lon="-149.54092">
        <ele>192.401123</ele>
        <time>2012-05-07T20:00:53Z</time>
      </trkpt>
      <trkpt lat="-17.54797" lon="-149.54108">
        <ele>189.036377</ele>
        <time>2012-05-07T20:00:57Z</time>
      </trkpt>
      <trkpt lat="-17.54783" lon="-149.54125">
        <ele>187.11377</ele>
        <time>2012-05-07T20:01:01Z</time>
      </trkpt>
      <trkpt lat="-17.54803" lon="-149.54165">
        <ele>184.710571</ele>
        <time>2012-05-07T20:01:09Z</time>
      </trkpt>
      <trkpt lat="-17.54806" lon="-149.54169">
        <ele>184.710571</ele>
        <time>2012-05-07T20:01:10Z</time>
      </trkpt>
      <trkpt lat="-17.54819" lon="-149.54186">
        <ele>183.268433</ele>
        <time>2012-05-07T20:01:14Z</time>
      </trkpt>
      <trkpt lat="-17.54833" lon="-149.54202">
        <ele>179.903809</ele>
        <time>2012-05-07T20:01:18Z</time>
      </trkpt>
      <trkpt lat="-17.54858" lon="-149.54228">
        <ele>177.50061</ele>
        <time>2012-05-07T20:01:23Z</time>
      </trkpt>
      <trkpt lat="-17.5487" lon="-149.54234">
        <ele>176.539307</ele>
        <time>2012-05-07T20:01:25Z</time>
      </trkpt>
      <trkpt lat="-17.54881" lon="-149.54239">
        <ele>176.539307</ele>
        <time>2012-05-07T20:01:27Z</time>
      </trkpt>
      <trkpt lat="-17.54934" lon="-149.54268">
        <ele>175.577881</ele>
        <time>2012-05-07T20:01:40Z</time>
      </trkpt>
      <trkpt lat="-17.54935" lon="-149.54278">
        <ele>176.058594</ele>
        <time>2012-05-07T20:01:43Z</time>
      </trkpt>
      <trkpt lat="-17.54909" lon="-149.54285">
        <ele>176.058594</ele>
        <time>2012-05-07T20:01:48Z</time>
      </trkpt>
      <trkpt lat="-17.54896" lon="-149.54289">
        <ele>175.577881</ele>
        <time>2012-05-07T20:01:51Z</time>
      </trkpt>
      <trkpt lat="-17.54876" lon="-149.54296">
        <ele>175.577881</ele>
        <time>2012-05-07T20:01:55Z</time>
      </trkpt>
      <trkpt lat="-17.54861" lon="-149.54299">
        <ele>175.09729</ele>
        <time>2012-05-07T20:01:58Z</time>
      </trkpt>
      <trkpt lat="-17.54839" lon="-149.54301">
        <ele>175.577881</ele>
        <time>2012-05-07T20:02:02Z</time>
      </trkpt>
      <trkpt lat="-17.54753" lon="-149.54296">
        <ele>176.058594</ele>
        <time>2012-05-07T20:02:15Z</time>
      </trkpt>
      <trkpt lat="-17.54734" lon="-149.54294">
        <ele>176.058594</ele>
        <time>2012-05-07T20:02:18Z</time>
      </trkpt>
      <trkpt lat="-17.54704" lon="-149.54297">
        <ele>176.539307</ele>
        <time>2012-05-07T20:02:23Z</time>
      </trkpt>
      <trkpt lat="-17.54693" lon="-149.54301">
        <ele>176.058594</ele>
        <time>2012-05-07T20:02:25Z</time>
      </trkpt>
      <trkpt lat="-17.54661" lon="-149.54319">
        <ele>175.577881</ele>
        <time>2012-05-07T20:02:31Z</time>
      </trkpt>
      <trkpt lat="-17.54638" lon="-149.5433">
        <ele>174.616577</ele>
        <time>2012-05-07T20:02:35Z</time>
      </trkpt>
      <trkpt lat="-17.54619" lon="-149.54336">
        <ele>173.174683</ele>
        <time>2012-05-07T20:02:39Z</time>
      </trkpt>
      <trkpt lat="-17.54564" lon="-149.54354">
        <ele>175.577881</ele>
        <time>2012-05-07T20:02:49Z</time>
      </trkpt>
      <trkpt lat="-17.54545" lon="-149.54357">
        <ele>175.09729</ele>
        <time>2012-05-07T20:02:52Z</time>
      </trkpt>
      <trkpt lat="-17.54519" lon="-149.54364">
        <ele>175.09729</ele>
        <time>2012-05-07T20:02:56Z</time>
      </trkpt>
      <trkpt lat="-17.54494" lon="-149.54365">
        <ele>176.058594</ele>
        <time>2012-05-07T20:03:01Z</time>
      </trkpt>
      <trkpt lat="-17.54494" lon="-149.54392">
        <ele>179.903809</ele>
        <time>2012-05-07T20:03:06Z</time>
      </trkpt>
      <trkpt lat="-17.54497" lon="-149.54398">
        <ele>179.903809</ele>
        <time>2012-05-07T20:03:07Z</time>
      </trkpt>
      <trkpt lat="-17.5451" lon="-149.54416">
        <ele>183.749023</ele>
        <time>2012-05-07T20:03:11Z</time>
      </trkpt>
      <trkpt lat="-17.54528" lon="-149.54436">
        <ele>184.710571</ele>
        <time>2012-05-07T20:03:16Z</time>
      </trkpt>
      <trkpt lat="-17.5455" lon="-149.5444">
        <ele>186.633179</ele>
        <time>2012-05-07T20:03:20Z</time>
      </trkpt>
      <trkpt lat="-17.54567" lon="-149.54437">
        <ele>189.036377</ele>
        <time>2012-05-07T20:03:23Z</time>
      </trkpt>
      <trkpt lat="-17.5459" lon="-149.54439">
        <ele>194.32373</ele>
        <time>2012-05-07T20:03:27Z</time>
      </trkpt>
      <trkpt lat="-17.54594" lon="-149.54441">
        <ele>194.32373</ele>
        <time>2012-05-07T20:03:28Z</time>
      </trkpt>
      <trkpt lat="-17.5459" lon="-149.54465">
        <ele>194.32373</ele>
        <time>2012-05-07T20:03:35Z</time>
      </trkpt>
      <trkpt lat="-17.54584" lon="-149.54471">
        <ele>191.920288</ele>
        <time>2012-05-07T20:03:37Z</time>
      </trkpt>
      <trkpt lat="-17.54573" lon="-149.54479">
        <ele>192.401123</ele>
        <time>2012-05-07T20:03:43Z</time>
      </trkpt>
      <trkpt lat="-17.54569" lon="-149.54487">
        <ele>190.958984</ele>
        <time>2012-05-07T20:03:46Z</time>
      </trkpt>
      <trkpt lat="-17.54541" lon="-149.54504">
        <ele>188.075073</ele>
        <time>2012-05-07T20:03:56Z</time>
      </trkpt>
      <trkpt lat="-17.54538" lon="-149.54506">
        <ele>189.036377</ele>
        <time>2012-05-07T20:03:58Z</time>
      </trkpt>
      <trkpt lat="-17.54525" lon="-149.54514">
        <ele>187.11377</ele>
        <time>2012-05-07T20:04:06Z</time>
      </trkpt>
      <trkpt lat="-17.54487" lon="-149.54535">
        <ele>185.191162</ele>
        <time>2012-05-07T20:04:18Z</time>
      </trkpt>
      <trkpt lat="-17.54463" lon="-149.5455">
        <ele>181.826416</ele>
        <time>2012-05-07T20:04:24Z</time>
      </trkpt>
      <trkpt lat="-17.54453" lon="-149.54557">
        <ele>180.865234</ele>
        <time>2012-05-07T20:04:26Z</time>
      </trkpt>
      <trkpt lat="-17.5443" lon="-149.54573">
        <ele>177.02002</ele>
        <time>2012-05-07T20:04:30Z</time>
      </trkpt>
      <trkpt lat="-17.54413" lon="-149.54586">
        <ele>174.616577</ele>
        <time>2012-05-07T20:04:33Z</time>
      </trkpt>
      <trkpt lat="-17.54401" lon="-149.54592">
        <ele>173.655273</ele>
        <time>2012-05-07T20:04:35Z</time>
      </trkpt>
      <trkpt lat="-17.54377" lon="-149.54603">
        <ele>170.290649</ele>
        <time>2012-05-07T20:04:39Z</time>
      </trkpt>
      <trkpt lat="-17.54365" lon="-149.54606">
        <ele>169.329468</ele>
        <time>2012-05-07T20:04:41Z</time>
      </trkpt>
      <trkpt lat="-17.54326" lon="-149.54621">
        <ele>165.003418</ele>
        <time>2012-05-07T20:04:48Z</time>
      </trkpt>
      <trkpt lat="-17.54321" lon="-149.54623">
        <ele>165.484131</ele>
        <time>2012-05-07T20:04:49Z</time>
      </trkpt>
      <trkpt lat="-17.54297" lon="-149.54632">
        <ele>162.119507</ele>
        <time>2012-05-07T20:04:53Z</time>
      </trkpt>
      <trkpt lat="-17.54265" lon="-149.54639">
        <ele>158.754761</ele>
        <time>2012-05-07T20:04:58Z</time>
      </trkpt>
      <trkpt lat="-17.54226" lon="-149.54642">
        <ele>154.909546</ele>
        <time>2012-05-07T20:05:04Z</time>
      </trkpt>
      <trkpt lat="-17.54212" lon="-149.54642">
        <ele>153.948364</ele>
        <time>2012-05-07T20:05:06Z</time>
      </trkpt>
      <trkpt lat="-17.54205" lon="-149.54642">
        <ele>153.467651</ele>
        <time>2012-05-07T20:05:07Z</time>
      </trkpt>
      <trkpt lat="-17.5418" lon="-149.54639">
        <ele>150.103027</ele>
        <time>2012-05-07T20:05:11Z</time>
      </trkpt>
      <trkpt lat="-17.54149" lon="-149.54633">
        <ele>147.218994</ele>
        <time>2012-05-07T20:05:17Z</time>
      </trkpt>
      <trkpt lat="-17.54138" lon="-149.54633">
        <ele>145.7771</ele>
        <time>2012-05-07T20:05:19Z</time>
      </trkpt>
      <trkpt lat="-17.54121" lon="-149.54639">
        <ele>143.85437</ele>
        <time>2012-05-07T20:05:22Z</time>
      </trkpt>
      <trkpt lat="-17.54109" lon="-149.54656">
        <ele>142.412476</ele>
        <time>2012-05-07T20:05:25Z</time>
      </trkpt>
      <trkpt lat="-17.54095" lon="-149.54678">
        <ele>141.45105</ele>
        <time>2012-05-07T20:05:29Z</time>
      </trkpt>
      <trkpt lat="-17.54082" lon="-149.547">
        <ele>138.086548</ele>
        <time>2012-05-07T20:05:33Z</time>
      </trkpt>
      <trkpt lat="-17.54061" lon="-149.54718">
        <ele>133.760498</ele>
        <time>2012-05-07T20:05:37Z</time>
      </trkpt>
      <trkpt lat="-17.54055" lon="-149.54722">
        <ele>134.721924</ele>
        <time>2012-05-07T20:05:38Z</time>
      </trkpt>
      <trkpt lat="-17.54038" lon="-149.54733">
        <ele>130.876709</ele>
        <time>2012-05-07T20:05:41Z</time>
      </trkpt>
      <trkpt lat="-17.54017" lon="-149.54748">
        <ele>127.511963</ele>
        <time>2012-05-07T20:05:45Z</time>
      </trkpt>
      <trkpt lat="-17.54001" lon="-149.54758">
        <ele>124.147339</ele>
        <time>2012-05-07T20:05:48Z</time>
      </trkpt>
      <trkpt lat="-17.5398" lon="-149.54771">
        <ele>121.26355</ele>
        <time>2012-05-07T20:05:52Z</time>
      </trkpt>
      <trkpt lat="-17.53963" lon="-149.54781">
        <ele>118.379395</ele>
        <time>2012-05-07T20:05:55Z</time>
      </trkpt>
      <trkpt lat="-17.53945" lon="-149.54791">
        <ele>115.014893</ele>
        <time>2012-05-07T20:05:59Z</time>
      </trkpt>
      <trkpt lat="-17.53942" lon="-149.54792">
        <ele>115.014893</ele>
        <time>2012-05-07T20:06:00Z</time>
      </trkpt>
      <trkpt lat="-17.53917" lon="-149.54806">
        <ele>111.650269</ele>
        <time>2012-05-07T20:06:07Z</time>
      </trkpt>
      <trkpt lat="-17.53913" lon="-149.54807">
        <ele>111.650269</ele>
        <time>2012-05-07T20:06:08Z</time>
      </trkpt>
      <trkpt lat="-17.53878" lon="-149.54814">
        <ele>107.805054</ele>
        <time>2012-05-07T20:06:15Z</time>
      </trkpt>
      <trkpt lat="-17.53862" lon="-149.54817">
        <ele>104.44043</ele>
        <time>2012-05-07T20:06:18Z</time>
      </trkpt>
      <trkpt lat="-17.53856" lon="-149.54817">
        <ele>104.921021</ele>
        <time>2012-05-07T20:06:19Z</time>
      </trkpt>
      <trkpt lat="-17.53839" lon="-149.54819">
        <ele>101.556396</ele>
        <time>2012-05-07T20:06:22Z</time>
      </trkpt>
      <trkpt lat="-17.53818" lon="-149.54822">
        <ele>98.191895</ele>
        <time>2012-05-07T20:06:26Z</time>
      </trkpt>
      <trkpt lat="-17.53793" lon="-149.5483">
        <ele>94.827148</ele>
        <time>2012-05-07T20:06:31Z</time>
      </trkpt>
      <trkpt lat="-17.53788" lon="-149.54831">
        <ele>94.346558</ele>
        <time>2012-05-07T20:06:32Z</time>
      </trkpt>
      <trkpt lat="-17.53762" lon="-149.5484">
        <ele>92.42395</ele>
        <time>2012-05-07T20:06:37Z</time>
      </trkpt>
      <trkpt lat="-17.53733" lon="-149.54849">
        <ele>89.059326</ele>
        <time>2012-05-07T20:06:46Z</time>
      </trkpt>
      <trkpt lat="-17.53715" lon="-149.54852">
        <ele>86.175293</ele>
        <time>2012-05-07T20:06:58Z</time>
      </trkpt>
      <trkpt lat="-17.53719" lon="-149.5486">
        <ele>87.136597</ele>
        <time>2012-05-07T20:07:06Z</time>
      </trkpt>
      <trkpt lat="-17.53701" lon="-149.54833">
        <ele>88.098022</ele>
        <time>2012-05-07T20:07:15Z</time>
      </trkpt>
      <trkpt lat="-17.53691" lon="-149.5485">
        <ele>90.981934</ele>
        <time>2012-05-07T20:07:23Z</time>
      </trkpt>
      <trkpt lat="-17.53692" lon="-149.54852">
        <ele>89.539917</ele>
        <time>2012-05-07T20:07:24Z</time>
      </trkpt>
      <trkpt lat="-17.53699" lon="-149.54856">
        <ele>88.578735</ele>
        <time>2012-05-07T20:07:26Z</time>
      </trkpt>
      <trkpt lat="-17.53705" lon="-149.54858">
        <ele>87.136597</ele>
        <time>2012-05-07T20:07:28Z</time>
      </trkpt>
      <trkpt lat="-17.53716" lon="-149.54858">
        <ele>88.098022</ele>
        <time>2012-05-07T20:07:43Z</time>
      </trkpt>
      <trkpt lat="-17.53722" lon="-149.54861">
        <ele>87.136597</ele>
        <time>2012-05-07T20:07:58Z</time>
      </trkpt>
    </trkseg>
  </trk>
</gpx>